Time;durP1;ratioP1;P1;durP2;ratioP2;P2;SDS_P1;SDS_P2;PMS_P1;PMS_P2;Temp;Humidity;BMP_temperature;BMP_pressure;BME280_temperature;BME280_humidity;BME280_pressure;Samples;Min_cycle;Max_cycle;Signal;HPM_P1;HPM_P2
2022/08/07 00:00:10;;;;;;;1.53;1.30;;;;;;;20.18;39.23;99894.19;4924472;29;20211;-86
2022/08/07 00:02:37;;;;;;;1.67;1.35;;;;;;;20.13;39.50;99897.31;4937544;29;20546;-86
2022/08/07 00:05:06;;;;;;;1.80;1.37;;;;;;;20.10;39.59;99893.09;4923051;29;20471;-84
2022/08/07 00:07:31;;;;;;;2.63;1.20;;;;;;;20.08;39.66;99900.41;4926194;29;20693;-86
2022/08/07 00:09:57;;;;;;;1.83;1.00;;;;;;;20.03;39.38;99894.69;4940337;29;21046;-87
2022/08/07 00:12:22;;;;;;;1.37;1.10;;;;;;;19.99;39.65;99890.66;4941843;29;20215;-86
2022/08/07 00:14:48;;;;;;;2.40;1.30;;;;;;;19.98;39.70;99898.81;4944163;29;20748;-86
2022/08/07 00:17:13;;;;;;;1.80;1.23;;;;;;;19.97;39.60;99902.47;4975638;23;20255;-78
2022/08/07 00:19:38;;;;;;;4.37;1.40;;;;;;;19.95;39.50;99897.28;4935283;28;20214;-78
2022/08/07 00:22:04;;;;;;;1.40;1.10;;;;;;;19.94;39.60;99900.94;4941791;28;20238;-78
2022/08/07 00:24:29;;;;;;;2.30;1.83;;;;;;;19.95;39.59;99901.78;4947649;28;20253;-77
2022/08/07 00:26:55;;;;;;;2.60;1.30;;;;;;;19.93;39.19;99899.28;4955520;28;20579;-77
2022/08/07 00:29:24;;;;;;;1.40;1.30;;;;;;;19.92;39.34;99900.25;4935712;28;20224;-77
2022/08/07 00:31:53;;;;;;;2.30;1.55;;;;;;;19.89;39.32;99905.88;4944746;28;20484;-77
2022/08/07 00:34:18;;;;;;;2.47;1.40;;;;;;;19.85;39.40;99893.88;4925233;28;20720;-77
2022/08/07 00:36:43;;;;;;;2.57;1.63;;;;;;;19.83;39.31;99895.84;4953686;28;20484;-77
2022/08/07 00:39:11;;;;;;;1.87;1.30;;;;;;;19.78;39.59;99888.28;4952961;28;20256;-77
2022/08/07 00:41:38;;;;;;;4.10;1.37;;;;;;;19.76;39.67;99887.56;4940210;28;20212;-77
2022/08/07 00:44:05;;;;;;;1.70;1.10;;;;;;;19.74;39.56;99892.25;4961327;28;20470;-77
2022/08/07 00:46:31;;;;;;;2.27;1.60;;;;;;;19.72;39.62;99893.38;4930728;28;20458;-76
2022/08/07 00:49:00;;;;;;;1.93;1.67;;;;;;;19.66;39.88;99887.66;4949400;28;20296;-76
2022/08/07 00:51:28;;;;;;;2.70;1.67;;;;;;;19.59;39.87;99885.69;4959346;28;20478;-77
2022/08/07 00:53:54;;;;;;;3.90;1.30;;;;;;;19.56;40.14;99881.50;4948674;28;20508;-77
2022/08/07 00:56:21;;;;;;;2.27;1.20;;;;;;;19.56;39.91;99881.50;4942930;28;20459;-77
2022/08/07 00:58:46;;;;;;;1.20;1.10;;;;;;;19.54;40.14;99878.16;4940865;28;20219;-76
2022/08/07 01:01:11;;;;;;;1.20;1.10;;;;;;;19.52;39.92;99881.94;4948669;28;20460;-77
2022/08/07 01:03:37;;;;;;;1.80;1.40;;;;;;;19.49;39.87;99882.25;4950602;28;21185;-76
2022/08/07 01:06:02;;;;;;;1.40;1.30;;;;;;;19.43;40.19;99870.34;4942184;28;20246;-77
2022/08/07 01:08:28;;;;;;;1.43;1.30;;;;;;;19.40;40.28;99868.00;4950031;28;20222;-78
2022/08/07 01:10:54;;;;;;;2.20;1.43;;;;;;;19.38;40.20;99867.28;4930152;28;20509;-76
2022/08/07 01:13:20;;;;;;;2.00;1.40;;;;;;;19.39;40.07;99871.66;4956017;28;20253;-77
2022/08/07 01:15:48;;;;;;;1.10;1.00;;;;;;;19.36;40.03;99866.59;4945676;28;20211;-76
2022/08/07 01:18:17;;;;;;;2.30;1.10;;;;;;;19.37;40.16;99869.13;4934914;28;20473;-76
2022/08/07 01:20:47;;;;;;;3.07;1.33;;;;;;;19.39;39.97;99871.66;4958203;28;20460;-77
2022/08/07 01:23:13;;;;;;;1.43;1.13;;;;;;;19.40;40.08;99857.34;4961048;28;20465;-76
2022/08/07 01:25:40;;;;;;;2.60;1.20;;;;;;;19.36;40.03;99859.47;4950064;28;20489;-77
2022/08/07 01:28:05;;;;;;;1.43;1.33;;;;;;;19.31;40.31;99860.88;4936120;28;20508;-76
2022/08/07 01:30:31;;;;;;;1.30;1.10;;;;;;;19.28;40.55;99864.69;4935837;28;20498;-79
2022/08/07 01:32:58;;;;;;;1.90;1.30;;;;;;;19.27;40.87;99859.50;4941227;28;20619;-80
2022/08/07 01:35:24;;;;;;;6.00;1.70;;;;;;;19.26;40.73;99860.50;4937549;28;20194;-77
2022/08/07 01:37:51;;;;;;;3.80;1.10;;;;;;;19.22;40.77;99862.59;4939472;28;20496;-77
2022/08/07 01:40:20;;;;;;;2.73;1.20;;;;;;;19.16;40.63;99863.19;4937860;28;20494;-77
2022/08/07 01:42:55;;;;;;;2.23;1.20;;;;;;;19.09;40.61;99857.63;4946921;28;20466;-76
2022/08/07 01:45:20;;;;;;;1.30;1.20;;;;;;;19.04;40.61;99859.88;4938259;28;20972;-77
2022/08/07 01:47:50;;;;;;;2.80;1.20;;;;;;;19.02;40.60;99856.53;4933169;28;20477;-76
2022/08/07 01:50:17;;;;;;;1.93;1.10;;;;;;;18.98;40.76;99857.78;4939258;28;21023;-77
2022/08/07 01:52:46;;;;;;;2.13;1.30;;;;;;;18.90;40.95;99863.00;4932346;28;20474;-76
2022/08/07 01:55:14;;;;;;;1.20;1.10;;;;;;;18.85;40.71;99862.59;4956753;28;20231;-77
2022/08/07 01:57:41;;;;;;;3.03;1.20;;;;;;;18.82;41.11;99860.22;4952108;28;20575;-77
2022/08/07 02:00:11;;;;;;;1.20;1.10;;;;;;;18.79;40.86;99856.03;4929233;28;20459;-76
2022/08/07 02:02:58;;;;;;;1.30;1.10;;;;;;;18.76;41.24;99858.97;4932355;28;20471;-76
2022/08/07 02:05:43;;;;;;;2.03;1.23;;;;;;;18.72;41.39;99862.91;4959472;28;21293;-76
2022/08/07 02:08:18;;;;;;;1.40;1.30;;;;;;;18.70;41.39;99852.38;4952555;28;20535;-76
2022/08/07 02:10:47;;;;;;;3.03;1.37;;;;;;;18.67;41.55;99852.66;4953009;28;20469;-76
2022/08/07 02:13:14;;;;;;;1.47;1.37;;;;;;;18.63;41.78;99850.44;4937385;28;21064;-77
2022/08/07 02:15:50;;;;;;;1.50;1.40;;;;;;;18.55;42.08;99856.47;4958272;28;20487;-76
2022/08/07 02:18:19;;;;;;;2.30;1.57;;;;;;;18.47;42.36;99856.34;4949436;28;20492;-77
2022/08/07 02:20:49;;;;;;;1.57;1.40;;;;;;;18.44;42.32;99854.78;4956985;28;20496;-77
2022/08/07 02:23:15;;;;;;;1.23;1.13;;;;;;;18.38;42.66;99859.84;4935854;28;20549;-76
2022/08/07 02:25:43;;;;;;;1.10;0.90;;;;;;;18.33;42.77;99855.81;4932193;28;20831;-77
2022/08/07 02:28:11;;;;;;;1.63;1.47;;;;;;;18.34;42.74;99852.16;4929394;28;20536;-76
2022/08/07 02:30:38;;;;;;;1.40;1.30;;;;;;;18.35;42.63;99851.19;4941306;28;20455;-76
2022/08/07 02:33:04;;;;;;;1.90;1.27;;;;;;;18.33;42.81;99850.50;4950521;28;20862;-77
2022/08/07 02:35:32;;;;;;;1.40;1.20;;;;;;;18.37;42.79;99853.72;4931441;28;20500;-77
2022/08/07 02:38:01;;;;;;;3.97;1.30;;;;;;;18.38;42.93;99860.69;4944477;28;21265;-76
2022/08/07 02:40:28;;;;;;;1.40;1.30;;;;;;;18.35;43.00;99858.31;4950568;28;20557;-76
2022/08/07 02:42:57;;;;;;;1.67;1.10;;;;;;;18.34;43.07;99869.94;4936504;28;20472;-76
2022/08/07 02:45:25;;;;;;;1.10;1.00;;;;;;;18.31;43.34;99868.41;4939846;28;20498;-77
2022/08/07 02:47:53;;;;;;;1.30;1.20;;;;;;;18.27;43.32;99871.47;4947831;28;20486;-77
2022/08/07 02:50:19;;;;;;;1.27;1.17;;;;;;;18.21;43.57;99870.22;4933548;28;20488;-78
2022/08/07 02:53:00;;;;;;;1.43;1.00;;;;;;;18.20;43.61;99865.91;4954225;28;20490;-76
2022/08/07 02:55:31;;;;;;;3.93;1.90;;;;;;;18.14;43.67;99859.28;4933686;28;20462;-77
2022/08/07 02:58:03;;;;;;;2.53;1.20;;;;;;;18.07;43.99;99860.84;4928134;28;20492;-77
2022/08/07 03:00:32;;;;;;;1.30;1.20;;;;;;;18.04;44.06;99860.31;4930721;28;20491;-76
2022/08/07 03:02:58;;;;;;;1.45;1.30;;;;;;;17.99;44.30;99857.22;4953498;28;20929;-76
2022/08/07 03:05:25;;;;;;;1.27;1.17;;;;;;;17.96;44.38;99854.81;4942029;28;20955;-77
2022/08/07 03:07:54;;;;;;;2.83;1.13;;;;;;;17.92;44.61;99852.44;4931965;28;20490;-76
2022/08/07 03:10:21;;;;;;;3.77;1.20;;;;;;;17.84;44.91;99843.50;4935478;28;20484;-76
2022/08/07 03:12:48;;;;;;;2.20;1.17;;;;;;;17.79;44.77;99846.53;4943470;28;20496;-76
2022/08/07 03:15:16;;;;;;;3.50;1.30;;;;;;;17.73;45.00;99846.25;4940356;28;20542;-76
2022/08/07 03:17:42;;;;;;;1.43;1.20;;;;;;;17.65;45.10;99847.75;4932529;28;20490;-79
2022/08/07 03:20:10;;;;;;;3.63;1.20;;;;;;;17.59;45.24;99853.63;4949763;28;20498;-76
2022/08/07 03:22:37;;;;;;;1.47;1.37;;;;;;;17.55;45.38;99846.91;4938064;28;20551;-76
2022/08/07 03:25:04;;;;;;;1.43;1.33;;;;;;;17.54;45.42;99855.00;4933637;28;21050;-77
2022/08/07 03:27:37;;;;;;;1.63;1.47;;;;;;;17.51;45.53;99852.63;4933587;28;20600;-77
2022/08/07 03:30:04;;;;;;;1.57;1.30;;;;;;;17.50;45.40;99849.16;4929786;28;20538;-76
2022/08/07 03:32:40;;;;;;;1.90;1.35;;;;;;;17.51;45.65;99861.44;4950518;28;20522;-79
2022/08/07 03:35:13;;;;;;;1.30;1.00;;;;;;;17.48;45.70;99859.06;4935637;28;20234;-79
2022/08/07 03:37:41;;;;;;;1.20;1.10;;;;;;;17.43;45.75;99856.78;4948577;28;20508;-79
2022/08/07 03:40:08;;;;;;;2.13;1.80;;;;;;;17.38;45.88;99852.88;4952065;28;20474;-77
2022/08/07 03:42:35;;;;;;;2.97;1.30;;;;;;;17.32;45.91;99859.56;4941375;28;20476;-78
2022/08/07 03:45:03;;;;;;;2.03;1.30;;;;;;;17.27;46.15;99858.28;4942217;28;21018;-78
2022/08/07 03:47:30;;;;;;;1.70;1.60;;;;;;;17.20;46.29;99857.97;4937120;28;20670;-78
2022/08/07 03:49:56;;;;;;;4.00;1.37;;;;;;;17.20;46.22;99858.84;4938801;28;20461;-78
2022/08/07 03:52:27;;;;;;;1.30;1.20;;;;;;;17.23;46.25;99855.91;4936907;28;20613;-78
2022/08/07 03:55:00;;;;;;;1.47;1.10;;;;;;;17.25;46.15;99863.72;4937390;28;20459;-79
2022/08/07 03:57:28;;;;;;;1.73;1.17;;;;;;;17.29;46.18;99859.00;4935784;28;20506;-79
2022/08/07 03:59:54;;;;;;;2.27;1.00;;;;;;;17.32;46.14;99858.72;4937375;28;20543;-79
2022/08/07 04:02:20;;;;;;;1.42;1.15;;;;;;;17.34;46.17;99857.63;4935432;28;20490;-78
2022/08/07 04:04:46;;;;;;;1.30;1.20;;;;;;;17.36;46.07;99865.44;4939899;28;20635;-78
2022/08/07 04:07:15;;;;;;;3.40;1.30;;;;;;;17.35;46.21;99853.97;4935938;28;20512;-78
2022/08/07 04:09:41;;;;;;;1.03;0.90;;;;;;;17.31;46.06;99855.25;4929067;28;20295;-78
2022/08/07 04:12:07;;;;;;;3.27;1.10;;;;;;;17.28;46.30;99858.13;4937351;28;20471;-78
2022/08/07 04:14:35;;;;;;;1.23;1.10;;;;;;;17.27;46.42;99855.63;4946127;28;20502;-79
2022/08/07 04:17:01;;;;;;;1.53;1.40;;;;;;;17.27;46.33;99860.94;4953131;28;21012;-78
2022/08/07 04:19:27;;;;;;;1.20;1.10;;;;;;;17.18;46.53;99852.81;4932835;28;20211;-79
2022/08/07 04:21:53;;;;;;;3.03;1.60;;;;;;;17.13;46.67;99859.50;4940227;28;20200;-78
2022/08/07 04:24:20;;;;;;;1.70;1.60;;;;;;;17.10;46.96;99859.75;4942762;28;20872;-78
2022/08/07 04:26:45;;;;;;;3.80;1.30;;;;;;;17.09;46.96;99858.06;4938736;28;20238;-78
2022/08/07 04:29:11;;;;;;;1.13;1.03;;;;;;;17.08;46.92;99864.38;4948850;28;20463;-78
2022/08/07 04:31:38;;;;;;;1.70;1.60;;;;;;;17.05;46.95;99859.31;4934259;28;20282;-79
2022/08/07 04:34:06;;;;;;;1.58;1.30;;;;;;;17.09;47.11;99864.22;4946593;28;21198;-79
2022/08/07 04:36:33;;;;;;;2.70;1.20;;;;;;;17.08;46.99;99864.38;4944720;28;20251;-79
2022/08/07 04:39:00;;;;;;;2.67;1.27;;;;;;;17.10;46.93;99865.06;4939444;28;20994;-78
2022/08/07 04:41:25;;;;;;;3.00;1.40;;;;;;;17.13;46.75;99868.28;4957427;28;20454;-78
2022/08/07 04:43:52;;;;;;;2.20;1.20;;;;;;;17.15;46.73;99874.31;4940221;28;20444;-78
2022/08/07 04:46:40;;;;;;;2.00;1.20;;;;;;;17.18;46.70;99876.69;4940140;28;20526;-78
2022/08/07 04:49:23;;;;;;;1.20;1.10;;;;;;;17.20;46.52;99871.25;4932557;28;20502;-79
2022/08/07 04:51:55;;;;;;;2.00;0.97;;;;;;;17.24;46.56;99878.81;4932331;28;20455;-78
2022/08/07 04:54:31;;;;;;;2.17;1.50;;;;;;;17.31;46.42;99879.13;4931961;28;20578;-79
2022/08/07 04:57:27;;;;;;;6.40;1.63;;;;;;;17.33;46.22;99884.28;4935568;28;20486;-80
2022/08/07 05:00:10;;;;;;;1.60;1.30;;;;;;;17.33;46.25;99887.78;4932935;28;20509;-78
2022/08/07 05:03:00;;;;;;;1.20;1.10;;;;;;;17.35;46.40;99891.16;4951081;28;20866;-78
2022/08/07 05:05:44;;;;;;;1.40;1.20;;;;;;;17.40;46.28;99896.06;4955053;28;20204;-78
2022/08/07 05:08:31;;;;;;;2.70;1.20;;;;;;;17.72;45.83;99900.38;4939072;28;20636;-79
2022/08/07 05:11:04;;;;;;;1.10;1.00;;;;;;;18.21;44.66;99896.81;4949555;28;20526;-78
2022/08/07 05:13:35;;;;;;;1.70;1.17;;;;;;;18.70;43.66;99886.97;4935274;28;21074;-79
2022/08/07 05:16:04;;;;;;;1.73;1.20;;;;;;;18.95;42.89;99895.34;4943196;28;20506;-79
2022/08/07 05:18:35;;;;;;;1.40;1.20;;;;;;;19.01;42.91;99900.94;4934241;28;20488;-79
2022/08/07 05:21:03;;;;;;;4.20;1.30;;;;;;;18.91;42.88;99896.63;4931253;28;20460;-79
2022/08/07 05:23:37;;;;;;;1.50;1.40;;;;;;;18.78;43.43;99911.06;4939500;28;20467;-79
2022/08/07 05:26:04;;;;;;;2.63;1.40;;;;;;;18.69;43.38;99908.41;4944349;28;20557;-79
2022/08/07 05:28:33;;;;;;;3.33;1.17;;;;;;;18.61;43.58;99906.47;4946539;28;20577;-80
2022/08/07 05:31:00;;;;;;;2.50;1.10;;;;;;;18.52;43.70;99902.84;4934509;28;20555;-79
2022/08/07 05:33:27;;;;;;;1.47;1.20;;;;;;;18.45;43.83;99906.19;4945093;28;20558;-78
2022/08/07 05:35:54;;;;;;;2.03;1.60;;;;;;;18.44;43.87;99909.81;4927869;28;20453;-78
2022/08/07 05:38:22;;;;;;;3.50;1.20;;;;;;;18.48;43.73;99906.75;4936663;28;20491;-78
2022/08/07 05:40:48;;;;;;;2.20;1.20;;;;;;;18.54;43.80;99903.50;4951465;28;20464;-80
2022/08/07 05:43:15;;;;;;;1.83;1.27;;;;;;;18.58;43.89;99912.91;4939023;28;21055;-78
2022/08/07 05:45:41;;;;;;;2.40;1.97;;;;;;;18.65;43.65;99921.16;4936614;28;20645;-79
2022/08/07 05:48:07;;;;;;;1.40;1.30;;;;;;;18.63;43.44;99915.13;4952129;28;20491;-78
2022/08/07 05:50:40;;;;;;;1.37;1.10;;;;;;;18.59;43.82;99919.06;4936150;28;20452;-79
2022/08/07 05:53:06;;;;;;;1.00;1.00;;;;;;;18.60;43.57;99910.09;4939489;28;20492;-79
2022/08/07 05:55:33;;;;;;;1.20;1.10;;;;;;;18.76;43.22;99921.00;4937415;28;21024;-79
2022/08/07 05:58:00;;;;;;;2.43;1.40;;;;;;;19.08;42.51;99919.84;4941245;28;20583;-79
2022/08/07 06:00:27;;;;;;;4.10;1.10;;;;;;;19.47;41.79;99922.38;4938966;28;20460;-79
2022/08/07 06:03:00;;;;;;;3.50;1.40;;;;;;;19.67;41.63;99915.13;4929545;28;20511;-79
2022/08/07 06:05:27;;;;;;;1.50;1.20;;;;;;;19.69;41.61;99915.00;4935902;28;20300;-79
2022/08/07 06:07:55;;;;;;;1.20;1.00;;;;;;;19.64;41.50;99904.75;4934524;28;20480;-79
2022/08/07 06:10:22;;;;;;;1.50;1.20;;;;;;;19.95;41.08;99913.28;4935589;28;21308;-79
2022/08/07 06:12:48;;;;;;;1.20;1.10;;;;;;;20.38;40.15;99914.34;4948002;28;20473;-78
2022/08/07 06:15:16;;;;;;;2.70;1.20;;;;;;;20.66;39.42;99908.97;4945485;28;20464;-78
2022/08/07 06:17:42;;;;;;;1.53;1.33;;;;;;;21.33;38.29;99919.88;5019764;23;20467;-85
2022/08/07 06:20:09;;;;;;;2.57;1.17;;;;;;;22.12;36.71;99916.03;4985758;28;20461;-83
2022/08/07 06:22:36;;;;;;;1.40;1.30;;;;;;;22.89;35.39;99913.88;4967793;28;20476;-85
2022/08/07 06:25:17;;;;;;;7.30;1.57;;;;;;;23.48;34.35;99907.38;4968183;28;20462;-84
2022/08/07 06:27:43;;;;;;;1.97;1.30;;;;;;;23.81;33.75;99903.56;4991042;28;20495;-83
2022/08/07 06:30:09;;;;;;;2.10;1.83;;;;;;;24.14;33.43;99905.22;4976623;28;20461;-83
2022/08/07 06:32:34;;;;;;;1.52;1.30;;;;;;;24.58;32.46;99896.53;4969727;28;20476;-85
2022/08/07 06:35:00;;;;;;;1.30;1.20;;;;;;;24.91;31.59;99897.03;4994461;28;20800;-83
2022/08/07 06:37:25;;;;;;;1.17;1.07;;;;;;;25.10;31.41;99890.28;4986750;28;20491;-82
2022/08/07 06:39:52;;;;;;;1.23;1.07;;;;;;;25.21;31.00;99900.63;4985780;28;20201;-85
2022/08/07 06:42:22;;;;;;;2.57;1.20;;;;;;;25.41;30.61;99890.16;4985030;28;20193;-86
2022/08/07 06:45:22;;;;;;;1.63;1.40;;;;;;;25.62;30.44;99897.41;4961255;28;20496;-85
2022/08/07 06:47:54;;;;;;;1.63;1.30;;;;;;;25.83;29.92;99889.44;4978384;28;20893;-87
2022/08/07 06:50:20;;;;;;;1.10;1.00;;;;;;;25.72;29.64;99891.75;4969285;28;20445;-86
2022/08/07 06:52:51;;;;;;;1.93;1.20;;;;;;;25.56;29.74;99888.25;4970625;28;20480;-85
2022/08/07 06:55:23;;;;;;;1.30;1.20;;;;;;;25.36;29.71;99890.69;4970146;28;20474;-84
2022/08/07 06:57:50;;;;;;;1.83;1.10;;;;;;;25.30;29.83;99888.75;4985510;28;20495;-85
2022/08/07 07:00:19;;;;;;;3.10;1.20;;;;;;;25.42;29.91;99883.72;4989142;28;20491;-84
2022/08/07 07:02:47;;;;;;;2.00;1.47;;;;;;;25.42;29.82;99886.41;4989652;28;20450;-84
2022/08/07 07:05:13;;;;;;;1.40;1.20;;;;;;;25.52;30.00;99888.81;4984469;28;20458;-85
2022/08/07 07:07:39;;;;;;;1.40;1.17;;;;;;;25.69;29.38;99892.13;4979588;28;20474;-85
2022/08/07 07:10:04;;;;;;;1.70;1.10;;;;;;;25.85;29.17;99886.56;4977342;28;20747;-85
2022/08/07 07:12:50;;;;;;;3.60;1.33;;;;;;;25.91;29.05;99888.47;4983619;28;20564;-86
2022/08/07 07:15:41;;;;;;;1.20;1.10;;;;;;;25.82;28.92;99882.34;4977137;28;20486;-86
2022/08/07 07:18:19;;;;;;;2.90;1.50;;;;;;;25.66;29.27;99879.91;4978900;28;20481;-86
2022/08/07 07:21:04;;;;;;;2.20;1.20;;;;;;;25.73;29.30;99885.34;4974336;28;20468;-85
2022/08/07 07:23:48;;;;;;;3.80;1.30;;;;;;;25.83;29.28;99880.50;4978330;28;20478;-85
2022/08/07 07:26:19;;;;;;;1.33;1.23;;;;;;;25.79;29.19;99880.03;4982098;28;20555;-85
2022/08/07 07:28:50;;;;;;;2.23;1.40;;;;;;;25.91;29.23;99876.88;4996778;28;20556;-87
2022/08/07 07:31:21;;;;;;;1.60;1.30;;;;;;;25.98;29.10;99862.47;4969410;28;20466;-85
2022/08/07 07:33:51;;;;;;;1.40;1.30;;;;;;;26.29;28.63;99869.38;4972859;28;20592;-85
2022/08/07 07:36:17;;;;;;;3.20;1.20;;;;;;;26.53;28.50;99861.97;4968152;28;20254;-84
2022/08/07 07:38:43;;;;;;;1.37;1.27;;;;;;;26.73;28.13;99857.53;4978977;28;20539;-86
2022/08/07 07:41:11;;;;;;;1.70;1.03;;;;;;;26.67;28.27;99856.47;4975205;28;20452;-86
2022/08/07 07:43:41;;;;;;;1.83;1.30;;;;;;;26.75;28.45;99857.34;4975942;28;20468;-86
2022/08/07 07:46:08;;;;;;;1.60;1.20;;;;;;;26.85;28.02;99855.16;4978613;28;20971;-86
2022/08/07 07:48:35;;;;;;;1.77;1.40;;;;;;;27.04;27.92;99849.03;4979413;28;20769;-84
2022/08/07 07:51:03;;;;;;;2.13;1.40;;;;;;;27.27;27.84;99845.22;4969333;28;21070;-84
2022/08/07 07:53:30;;;;;;;4.87;2.70;;;;;;;27.55;27.29;99840.59;4979842;28;20494;-85
2022/08/07 07:56:02;;;;;;;1.40;1.30;;;;;;;27.74;26.96;99832.75;4974372;28;20575;-85
2022/08/07 07:58:30;;;;;;;1.43;1.20;;;;;;;27.97;26.95;99838.63;4964380;28;20864;-85
2022/08/07 08:00:57;;;;;;;1.77;1.60;;;;;;;28.27;26.71;99840.13;4965409;28;21053;-83
2022/08/07 08:03:23;;;;;;;2.40;1.70;;;;;;;28.48;26.07;99831.84;4969155;28;20480;-85
2022/08/07 08:05:50;;;;;;;2.60;1.40;;;;;;;28.56;25.92;99836.19;4959138;28;20248;-85
2022/08/07 08:08:16;;;;;;;1.50;1.10;;;;;;;28.51;26.54;99836.81;4960312;28;20509;-84
2022/08/07 08:10:43;;;;;;;1.57;1.10;;;;;;;28.54;26.47;99843.69;4958078;28;20596;-85
2022/08/07 08:13:09;;;;;;;1.93;1.40;;;;;;;28.74;25.99;99832.84;4973284;28;20495;-85
2022/08/07 08:15:38;;;;;;;3.70;1.47;;;;;;;28.90;26.08;99827.81;4973048;28;20453;-84
2022/08/07 08:18:08;;;;;;;1.63;1.50;;;;;;;29.00;25.64;99821.97;4985091;28;20858;-85
2022/08/07 08:20:34;;;;;;;2.53;1.53;;;;;;;29.10;25.72;99832.38;4974077;28;20542;-85
2022/08/07 08:28:39;;;;;;;1.43;1.33;;;;;;;29.18;25.51;99815.06;4983092;28;20476;-86
2022/08/07 08:31:08;;;;;;;1.50;1.40;;;;;;;28.96;25.70;99830.72;4971372;28;20449;-87
2022/08/07 08:33:35;;;;;;;2.17;1.57;;;;;;;28.62;26.65;99819.97;4976242;28;20507;-86
2022/08/07 08:36:02;;;;;;;1.93;1.47;;;;;;;28.44;26.91;99822.50;4969852;28;20898;-86
2022/08/07 08:38:34;;;;;;;4.07;1.47;;;;;;;28.28;26.91;99817.50;4974217;28;20520;-85
2022/08/07 08:41:04;;;;;;;1.20;1.10;;;;;;;28.27;27.47;99816.63;4969824;28;20473;-85
2022/08/07 08:43:29;;;;;;;1.80;1.43;;;;;;;28.31;27.34;99819.78;4987236;28;20457;-85
2022/08/07 08:46:05;;;;;;;1.73;1.30;;;;;;;28.29;27.56;99811.84;4977003;28;20467;-85
2022/08/07 08:48:49;;;;;;;2.27;1.60;;;;;;;28.21;27.77;99812.06;4973222;28;20602;-86
2022/08/07 08:51:30;;;;;;;1.60;1.50;;;;;;;27.92;28.18;99797.94;4969650;28;20549;-85
2022/08/07 08:54:00;;;;;;;1.87;1.47;;;;;;;27.70;29.17;99807.19;4974227;28;20491;-85
2022/08/07 08:56:31;;;;;;;10.13;2.20;;;;;;;27.62;29.04;99807.38;4978114;28;20467;-85
2022/08/07 08:59:25;;;;;;;2.13;1.93;;;;;;;27.53;29.63;99802.19;4981586;28;20568;-86
2022/08/07 09:02:12;;;;;;;1.87;1.40;;;;;;;27.47;29.42;99791.38;4976453;28;20452;-85
2022/08/07 09:04:46;;;;;;;2.43;2.23;;;;;;;27.54;29.74;99789.50;4975022;28;21164;-86
2022/08/07 09:07:23;;;;;;;2.33;1.73;;;;;;;27.55;29.75;99797.41;4975675;28;20988;-85
2022/08/07 09:10:00;;;;;;;2.53;1.57;;;;;;;27.56;30.03;99788.28;4975773;28;21037;-85
2022/08/07 09:12:47;;;;;;;2.90;1.50;;;;;;;27.60;30.14;99788.72;4974832;28;20475;-85
2022/08/07 09:15:31;;;;;;;1.70;1.60;;;;;;;27.76;30.16;99782.06;4974412;28;20458;-86
2022/08/07 09:17:59;;;;;;;3.30;1.80;;;;;;;27.84;30.11;99789.19;4980214;28;20558;-85
2022/08/07 09:20:37;;;;;;;2.20;1.50;;;;;;;28.08;29.58;99772.38;4980494;28;20457;-85
2022/08/07 09:23:12;;;;;;;2.27;1.73;;;;;;;28.27;29.52;99786.91;4975440;28;20992;-87
2022/08/07 09:25:52;;;;;;;1.87;1.77;;;;;;;28.41;29.57;99780.47;4980187;28;20479;-85
2022/08/07 09:28:34;;;;;;;1.53;1.43;;;;;;;28.44;29.46;99781.97;4977259;28;20491;-85
2022/08/07 09:31:15;;;;;;;3.30;1.60;;;;;;;28.48;29.25;99777.78;4977142;28;20472;-86
2022/08/07 09:34:10;;;;;;;1.97;1.50;;;;;;;28.63;29.10;99770.28;4975267;28;20999;-86
2022/08/07 09:36:46;;;;;;;2.63;1.57;;;;;;;28.86;28.83;99760.84;4976860;28;20464;-86
2022/08/07 09:39:20;;;;;;;1.63;1.53;;;;;;;28.93;28.58;99767.09;4975809;28;20492;-85
2022/08/07 09:42:01;;;;;;;5.80;2.40;;;;;;;28.99;28.58;99766.22;4978364;28;20997;-86
2022/08/07 09:44:45;;;;;;;3.47;1.93;;;;;;;29.08;28.88;99764.13;4973287;28;20976;-85
2022/08/07 09:47:13;;;;;;;3.03;2.10;;;;;;;29.12;28.67;99765.38;4997032;28;20535;-85
2022/08/07 09:49:54;;;;;;;2.83;2.40;;;;;;;29.07;28.62;99757.06;4979203;28;20469;-85
2022/08/07 09:52:24;;;;;;;2.93;2.57;;;;;;;29.14;28.54;99760.59;4977726;28;20461;-86
2022/08/07 09:54:59;;;;;;;3.30;1.73;;;;;;;29.25;28.34;99759.09;4967204;28;20549;-86
2022/08/07 09:58:14;;;;;;;2.00;1.87;;;;;;;29.27;28.56;99757.81;4978623;28;20996;-84
2022/08/07 10:00:56;;;;;;;2.20;1.57;;;;;;;29.25;28.37;99753.66;4973960;28;20469;-85
2022/08/07 10:03:34;;;;;;;1.87;1.73;;;;;;;29.31;28.37;99745.50;4975313;28;20470;-85
2022/08/07 10:06:35;;;;;;;3.87;2.37;;;;;;;29.47;28.43;99740.63;4973674;28;20506;-85
2022/08/07 10:09:37;;;;;;;2.27;2.07;;;;;;;29.73;27.89;99739.63;4966230;28;21063;-85
2022/08/07 10:12:08;;;;;;;4.43;1.80;;;;;;;29.81;28.00;99730.41;4967912;28;20467;-85
2022/08/07 10:15:00;;;;;;;2.97;1.80;;;;;;;29.93;27.62;99734.91;4976474;28;20492;-85
2022/08/07 10:17:58;;;;;;;2.13;2.03;;;;;;;29.90;27.61;99731.81;4973604;28;20479;-84
2022/08/07 10:20:44;;;;;;;2.43;1.83;;;;;;;29.85;27.58;99726.25;4952091;28;20476;-86
2022/08/07 10:23:18;;;;;;;2.50;1.80;;;;;;;29.79;27.77;99709.00;4967130;28;21111;-84
2022/08/07 10:25:52;;;;;;;2.20;2.00;;;;;;;29.88;27.83;99710.38;4971386;28;20516;-86
2022/08/07 10:28:50;;;;;;;2.10;1.90;;;;;;;30.00;27.50;99702.34;4976041;28;20567;-85
2022/08/07 10:31:37;;;;;;;3.30;1.70;;;;;;;30.10;27.33;99694.53;4957558;28;20457;-87
2022/08/07 10:34:16;;;;;;;4.30;1.83;;;;;;;30.18;27.43;99698.84;4972811;28;20492;-86
2022/08/07 10:36:57;;;;;;;2.30;2.10;;;;;;;30.23;27.63;99698.22;4976586;28;20461;-86
2022/08/07 10:39:35;;;;;;;4.00;1.97;;;;;;;30.24;27.20;99691.72;4973065;28;20507;-86
2022/08/07 10:42:18;;;;;;;2.60;2.10;;;;;;;30.31;27.02;99677.06;4977940;28;20890;-86
2022/08/07 10:45:22;;;;;;;5.03;1.90;;;;;;;30.44;27.14;99684.22;4971927;28;21285;-85
2022/08/07 10:48:17;;;;;;;2.40;1.70;;;;;;;30.35;26.92;99680.16;4978537;28;21035;-86
2022/08/07 10:50:51;;;;;;;3.13;2.30;;;;;;;30.26;26.84;99681.50;4959854;28;20884;-87
2022/08/07 10:53:25;;;;;;;2.43;2.10;;;;;;;30.26;27.23;99678.78;4993548;28;20495;-86
2022/08/07 10:56:01;;;;;;;2.10;2.00;;;;;;;30.37;26.87;99669.91;4985110;28;21103;-87
2022/08/07 10:58:43;;;;;;;2.70;1.70;;;;;;;30.36;27.18;99676.41;4994567;28;20490;-86
2022/08/07 11:01:28;;;;;;;2.30;2.00;;;;;;;30.36;27.17;99663.69;4997218;28;20459;-86
2022/08/07 11:04:02;;;;;;;2.37;1.70;;;;;;;30.26;27.27;99657.94;4992678;28;20471;-86
2022/08/07 11:06:40;;;;;;;1.73;1.63;;;;;;;30.16;27.24;99658.44;4994017;28;20467;-88
2022/08/07 11:09:17;;;;;;;2.30;2.10;;;;;;;30.20;27.49;99653.41;4996852;28;20499;-87
2022/08/07 11:12:05;;;;;;;2.70;1.60;;;;;;;30.13;27.15;99650.75;4992548;28;20685;-86
2022/08/07 11:14:42;;;;;;;2.80;1.77;;;;;;;30.11;26.97;99658.28;4987649;28;20479;-87
2022/08/07 11:17:20;;;;;;;1.53;1.43;;;;;;;30.18;27.33;99637.34;4995328;28;20526;-87
2022/08/07 11:19:49;;;;;;;3.00;2.10;;;;;;;30.29;27.00;99640.41;4997609;28;21042;-87
2022/08/07 11:22:28;;;;;;;2.00;1.90;;;;;;;30.26;27.34;99649.81;4992724;28;20859;-86
2022/08/07 11:25:05;;;;;;;3.30;1.83;;;;;;;30.27;26.88;99647.94;4989597;28;20539;-86
2022/08/07 11:28:00;;;;;;;3.93;1.97;;;;;;;30.33;27.19;99645.16;5007616;28;20615;-86
2022/08/07 11:30:51;;;;;;;2.27;1.93;;;;;;;30.26;27.09;99644.41;4873300;28;20506;-86
2022/08/07 11:33:38;;;;;;;2.03;1.93;;;;;;;30.24;27.20;99637.53;4888110;29;20597;-86
2022/08/07 11:36:22;;;;;;;3.23;2.00;;;;;;;30.22;27.56;99621.50;4884597;29;20949;-87
2022/08/07 11:39:02;;;;;;;2.17;1.97;;;;;;;30.25;27.59;99622.97;4885072;29;20512;-86
2022/08/07 11:41:34;;;;;;;3.50;1.83;;;;;;;30.26;27.79;99625.44;4881753;29;21056;-86
2022/08/07 11:44:21;;;;;;;2.30;2.10;;;;;;;30.33;27.59;99622.66;4885428;29;20464;-86
2022/08/07 11:47:08;;;;;;;2.83;1.80;;;;;;;30.41;27.29;99622.34;4899508;29;20544;-87
2022/08/07 11:49:55;;;;;;;3.47;2.30;;;;;;;30.47;27.15;99623.31;4885899;29;21001;-85
2022/08/07 11:52:26;;;;;;;1.63;1.53;;;;;;;30.57;26.93;99602.75;4885626;29;20459;-86
2022/08/07 11:55:03;;;;;;;4.23;1.90;;;;;;;30.65;26.36;99617.88;4883554;29;20524;-87
2022/08/07 11:57:40;;;;;;;2.37;2.17;;;;;;;30.72;26.49;99615.06;4884678;29;20468;-86
2022/08/07 12:00:27;;;;;;;3.30;2.23;;;;;;;30.81;26.53;99598.28;4884344;29;20497;-86
2022/08/07 12:03:04;;;;;;;2.93;2.10;;;;;;;30.85;26.51;99606.78;4885703;29;20483;-87